createdAt,value
2018-05-02T07:29:26.448Z,660
2018-05-02T07:30:28.299Z,640
2018-05-02T07:31:30.872Z,615
2018-05-02T07:32:32.893Z,610
2018-05-02T07:33:34.573Z,595
2018-05-02T07:34:36.409Z,575
2018-05-02T07:35:38.305Z,540
2018-05-02T07:36:40.225Z,520
2018-05-02T07:37:42.246Z,510
2018-05-02T07:40:01.954Z,495
2018-05-02T07:41:04.142Z,520
2018-05-02T07:42:06.476Z,555
2018-05-02T07:43:08.981Z,570
2018-05-02T07:44:11.898Z,505
2018-05-02T07:45:14.049Z,475
2018-05-02T07:46:16.219Z,500
2018-05-02T07:47:18.461Z,540
2018-05-02T07:48:21.061Z,600
2018-05-02T07:49:35.744Z,590
2018-05-02T07:50:37.937Z,540
2018-05-02T07:51:40.122Z,500
2018-05-02T07:52:42.317Z,460
2018-05-02T07:53:44.793Z,445
2018-05-02T07:54:47.171Z,480
2018-05-02T07:55:49.394Z,545
2018-05-02T07:56:51.594Z,605
2018-05-02T07:57:54.012Z,615
2018-05-02T08:00:13.426Z,515
2018-05-02T08:01:15.275Z,495
2018-05-02T08:02:17.149Z,475
2018-05-02T08:03:19.048Z,470
2018-05-02T08:04:20.886Z,420
2018-05-02T08:05:22.708Z,400
2018-05-02T08:06:24.596Z,380
2018-05-02T08:07:26.537Z,380
2018-05-02T08:08:28.365Z,410
2018-05-02T08:09:42.520Z,440
2018-05-02T08:10:44.390Z,445
2018-05-02T08:11:46.263Z,440
2018-05-02T08:12:48.159Z,410
2018-05-02T08:13:49.997Z,385
2018-05-02T08:14:51.811Z,370
2018-05-02T08:15:53.707Z,360
2018-05-02T08:16:55.581Z,365
2018-05-02T08:17:57.455Z,390
2018-05-02T08:19:11.628Z,420
2018-05-02T08:20:13.525Z,440
2018-05-02T08:21:15.423Z,455
2018-05-02T08:22:17.320Z,445
2018-05-02T08:23:19.132Z,440
2018-05-02T08:24:20.948Z,435
2018-05-02T08:25:22.842Z,435
2018-05-02T08:26:24.724Z,445
2018-05-02T08:27:26.616Z,465
2018-05-02T08:28:40.769Z,510
2018-05-02T08:29:42.648Z,520
2018-05-02T08:30:44.540Z,540
2018-05-02T08:31:46.418Z,565
2018-05-02T08:32:48.285Z,595
2018-05-02T08:33:50.073Z,620
2018-05-02T08:34:51.974Z,645
2018-05-02T08:35:53.847Z,670
2018-05-02T08:36:55.745Z,690
2018-05-02T08:38:09.892Z,700
2018-05-02T08:39:11.766Z,695
2018-05-02T08:40:13.639Z,700
2018-05-02T08:41:15.521Z,705
2018-05-02T08:42:17.357Z,710
2018-05-02T08:43:19.196Z,710
2018-05-02T08:44:21.096Z,725
2018-05-02T08:45:22.968Z,710
2018-05-02T08:46:24.867Z,685
2018-05-02T08:47:39.022Z,655
2018-05-02T08:48:40.920Z,645
2018-05-02T08:49:42.797Z,640
2018-05-02T08:50:44.749Z,640
2018-05-02T08:51:46.552Z,640
2018-05-02T08:52:48.493Z,605
2018-05-02T08:53:50.563Z,585
2018-05-02T08:54:52.440Z,545
2018-05-02T08:55:54.360Z,520
2018-05-02T08:57:08.542Z,490
2018-05-02T08:58:10.441Z,480
2018-05-02T08:59:12.340Z,480
2018-05-02T09:00:14.223Z,510
2018-05-02T09:01:16.060Z,530
2018-05-02T09:02:17.903Z,555
2018-05-02T09:03:19.795Z,585
2018-05-02T09:04:21.770Z,620
2018-05-02T09:05:23.680Z,645
2018-05-02T09:06:37.860Z,645
2018-05-02T09:07:39.773Z,635
2018-05-02T09:08:41.733Z,610
2018-05-02T09:09:43.627Z,595
2018-05-02T09:10:45.501Z,575
2018-05-02T09:11:47.365Z,580
2018-05-02T09:12:49.265Z,590
2018-05-02T09:13:51.164Z,595
2018-05-02T09:14:53.061Z,575
2018-05-02T09:16:07.279Z,540
2018-05-02T09:17:09.184Z,520
2018-05-02T09:18:11.109Z,525
2018-05-02T09:19:12.995Z,545
2018-05-02T09:20:14.818Z,560
2018-05-02T09:21:16.655Z,575
2018-05-02T09:22:18.530Z,585
2018-05-02T09:23:20.412Z,560
2018-05-02T09:24:22.302Z,540
2018-05-02T09:25:36.516Z,555
2018-05-02T09:26:38.392Z,565
2018-05-02T09:27:40.290Z,580
2018-05-02T09:28:42.168Z,595
2018-05-02T09:29:43.986Z,620
2018-05-02T09:30:45.797Z,625
2018-05-02T09:31:47.678Z,630
2018-05-02T09:32:49.576Z,635
2018-05-02T09:33:51.449Z,645
2018-05-02T09:35:05.606Z,680
2018-05-02T09:36:07.484Z,700
2018-05-02T09:37:09.383Z,690
2018-05-02T09:38:11.268Z,680
2018-05-02T09:39:13.107Z,675
2018-05-02T09:40:14.919Z,675
2018-05-02T09:41:16.801Z,670
2018-05-02T09:42:18.703Z,675
2018-05-02T09:43:20.601Z,685
2018-05-02T09:44:34.755Z,715
2018-05-02T09:45:36.634Z,745
2018-05-02T09:46:39.193Z,745
2018-05-02T09:47:41.160Z,725
2018-05-02T09:48:43.074Z,680
2018-05-02T09:49:44.921Z,640
2018-05-02T09:50:46.829Z,620
2018-05-02T09:51:48.702Z,620
2018-05-02T09:52:50.583Z,635
2018-05-02T09:54:04.740Z,620
2018-05-02T09:55:06.609Z,600
2018-05-02T09:56:08.487Z,585
2018-05-02T09:57:10.387Z,585
2018-05-02T09:58:12.316Z,600
2018-05-02T09:59:14.131Z,600
2018-05-02T10:00:16.057Z,595
2018-05-02T10:01:17.930Z,605
2018-05-02T10:02:19.845Z,625
2018-05-02T10:03:34.052Z,685
2018-05-02T10:04:35.973Z,720
2018-05-02T10:05:37.822Z,720
2018-05-02T10:06:39.706Z,705
2018-05-02T10:07:41.612Z,675
2018-05-02T10:08:43.475Z,660
2018-05-02T10:09:45.370Z,670
2018-05-02T10:10:47.285Z,685
2018-05-02T10:11:49.163Z,690
2018-05-02T10:13:03.318Z,670
2018-05-02T10:14:05.241Z,650
2018-05-02T10:15:07.114Z,625
2018-05-02T10:16:09.052Z,595
2018-05-02T10:17:10.854Z,590
2018-05-02T10:18:12.676Z,605
2018-05-02T10:19:14.585Z,650
2018-05-02T10:20:16.544Z,695
2018-05-02T10:21:18.475Z,735
2018-05-02T10:22:32.626Z,755
2018-05-02T10:23:34.530Z,750
2018-05-02T10:24:36.425Z,755
2018-05-02T10:25:38.309Z,770
2018-05-02T10:26:40.128Z,765
2018-05-02T10:27:41.943Z,740
2018-05-02T10:28:43.842Z,675
2018-05-02T10:29:45.737Z,625
2018-05-02T10:30:47.618Z,585
2018-05-02T10:32:01.773Z,560
2018-05-02T10:33:03.648Z,555
2018-05-02T10:34:05.548Z,560
2018-05-02T10:35:07.477Z,570
2018-05-02T10:36:09.284Z,585
2018-05-02T10:37:11.121Z,610
2018-05-02T10:38:12.994Z,645
2018-05-02T10:39:14.880Z,665
2018-05-02T10:40:16.776Z,675
2018-05-02T10:41:30.929Z,665
2018-05-02T10:42:32.827Z,675
2018-05-02T10:43:34.722Z,690
2018-05-02T10:44:36.605Z,695
2018-05-02T10:45:38.420Z,700
2018-05-02T10:46:40.258Z,695
2018-05-02T10:47:42.135Z,665
2018-05-02T10:48:44.015Z,645
2018-05-02T10:49:45.914Z,630
2018-05-02T10:51:00.080Z,610
2018-05-02T10:52:01.980Z,600
2018-05-02T10:53:03.855Z,590
2018-05-02T10:54:05.733Z,565
2018-05-02T10:55:07.575Z,540
2018-05-02T10:56:09.394Z,505
2018-05-02T10:57:11.254Z,480
2018-05-02T10:58:13.075Z,455
2018-05-02T10:59:14.944Z,425
2018-05-02T11:00:29.171Z,385
2018-05-02T11:01:31.024Z,350
2018-05-02T11:02:32.904Z,320
2018-05-02T11:03:34.804Z,310
2018-05-02T11:04:36.622Z,300
2018-05-02T11:05:38.438Z,285
2018-05-02T11:06:40.334Z,275
2018-05-02T11:07:42.211Z,260
2018-05-02T11:08:44.098Z,255
2018-05-02T11:09:58.267Z,265
2018-05-02T11:11:00.161Z,280
2018-05-02T11:12:02.046Z,270
2018-05-02T11:13:03.950Z,255
2018-05-02T11:14:05.786Z,245
2018-05-02T11:15:07.620Z,245
2018-05-02T11:16:09.501Z,245
2018-05-02T11:17:11.404Z,240
2018-05-02T11:18:13.292Z,250
2018-05-02T11:19:27.444Z,260
2018-05-02T11:20:29.319Z,250
2018-05-02T11:21:31.220Z,240
2018-05-02T11:22:33.095Z,235
2018-05-02T11:23:34.981Z,235
2018-05-02T11:24:36.783Z,235
2018-05-02T11:25:38.662Z,230
2018-05-02T11:26:40.533Z,230
2018-05-02T11:27:42.430Z,230
2018-05-02T11:28:56.589Z,230
2018-05-02T11:29:58.504Z,230
2018-05-02T11:31:00.377Z,230
2018-05-02T11:32:02.286Z,230
2018-05-02T11:33:04.092Z,230
2018-05-02T11:34:05.931Z,230
2018-05-02T11:35:07.828Z,230
2018-05-02T11:36:09.703Z,230
2018-05-02T11:37:11.603Z,230
2018-05-02T11:38:25.751Z,230
2018-05-02T11:39:27.630Z,230
2018-05-02T11:40:29.505Z,230
2018-05-02T11:41:31.380Z,230
2018-05-02T11:42:33.212Z,230
2018-05-02T11:43:35.028Z,235
2018-05-02T11:44:36.905Z,235
2018-05-02T11:45:38.816Z,240
2018-05-02T11:46:40.731Z,240
2018-05-02T11:47:54.867Z,240
2018-05-02T11:48:56.758Z,240
2018-05-02T11:49:58.631Z,240
2018-05-02T11:51:00.506Z,245
2018-05-02T11:52:02.345Z,245
2018-05-02T11:53:04.183Z,250
2018-05-02T11:54:06.094Z,250
2018-05-02T11:55:07.987Z,255
2018-05-02T11:56:09.865Z,260
2018-05-02T11:57:24.038Z,265
2018-05-02T11:58:25.910Z,275
2018-05-02T11:59:27.786Z,275
2018-05-02T12:00:29.662Z,275
2018-05-02T12:01:31.485Z,285
2018-05-02T12:02:33.329Z,285
2018-05-02T12:03:35.230Z,290
2018-05-02T12:04:37.065Z,290
2018-05-02T12:05:38.933Z,300
2018-05-02T12:06:53.088Z,310
2018-05-02T12:07:54.965Z,320
2018-05-02T12:08:56.860Z,325
2018-05-02T12:09:58.735Z,330
2018-05-02T12:11:00.554Z,325
2018-05-02T12:12:02.360Z,310
2018-05-02T12:13:04.243Z,295
2018-05-02T12:14:06.135Z,290
2018-05-02T12:15:08.009Z,275
2018-05-02T12:16:22.211Z,270
2018-05-02T12:17:24.089Z,265
2018-05-02T12:18:25.984Z,260
2018-05-02T12:19:27.859Z,265
2018-05-02T12:20:29.671Z,280
2018-05-02T12:21:31.504Z,295
2018-05-02T12:22:33.380Z,320
2018-05-02T12:23:35.277Z,340
2018-05-02T12:24:37.152Z,360
2018-05-02T12:25:51.330Z,395
2018-05-02T12:26:53.229Z,430
2018-05-02T12:27:55.127Z,465
2018-05-02T12:28:56.995Z,495
2018-05-02T12:29:58.832Z,530
2018-05-02T12:31:00.648Z,530
2018-05-02T12:32:02.549Z,510
2018-05-02T12:33:04.455Z,500
2018-05-02T12:34:06.346Z,490
2018-05-02T12:35:20.685Z,465
2018-05-02T12:36:22.470Z,460
2018-05-02T12:37:24.387Z,460
2018-05-02T12:38:26.272Z,465
2018-05-02T12:39:28.083Z,480
2018-05-02T12:40:29.901Z,485
2018-05-02T12:41:31.801Z,510
2018-05-02T12:42:33.697Z,555
2018-05-02T12:43:35.577Z,620
2018-05-02T12:44:49.732Z,615
2018-05-02T12:45:51.603Z,605
2018-05-02T12:46:53.483Z,645
2018-05-02T12:47:55.385Z,625
2018-05-02T12:48:57.226Z,600
2018-05-02T12:49:59.061Z,500
2018-05-02T12:51:00.964Z,430
2018-05-02T12:52:02.866Z,470
2018-05-02T12:53:04.761Z,505
2018-05-02T12:54:18.916Z,430
2018-05-02T12:55:20.791Z,385
2018-05-02T12:56:22.687Z,370
2018-05-02T12:57:24.540Z,355
2018-05-02T12:58:26.383Z,345
2018-05-02T12:59:28.220Z,335
2018-05-02T13:00:30.094Z,330
2018-05-02T13:01:31.970Z,340
2018-05-02T13:02:33.882Z,355
2018-05-02T13:03:48.035Z,360
2018-05-02T13:04:49.910Z,345
2018-05-02T13:05:51.787Z,335
2018-05-02T13:06:53.723Z,340
2018-05-02T13:07:55.550Z,345
2018-05-02T13:08:57.436Z,335
2018-05-02T13:09:59.308Z,340
2018-05-02T13:11:01.267Z,340
2018-05-02T13:12:03.166Z,340
2018-05-02T13:13:17.325Z,335
2018-05-02T13:14:19.222Z,340
2018-05-02T13:15:21.093Z,350
2018-05-02T13:16:22.969Z,380
2018-05-02T13:17:24.783Z,405
2018-05-02T13:18:26.601Z,485
2018-05-02T13:19:28.483Z,545
2018-05-02T13:20:30.379Z,535
2018-05-02T13:21:32.304Z,545
2018-05-02T13:22:46.415Z,535
2018-05-02T13:23:48.316Z,535
2018-05-02T13:24:50.217Z,565
2018-05-02T13:25:52.134Z,580
2018-05-02T13:26:54.032Z,590
2018-05-02T13:27:55.881Z,560
2018-05-02T13:28:57.767Z,565
2018-05-02T13:29:59.636Z,540
2018-05-02T13:31:01.515Z,505
2018-05-02T13:32:15.672Z,450
2018-05-02T13:33:17.643Z,370
2018-05-02T13:34:19.425Z,315
2018-05-02T13:35:21.292Z,295
2018-05-02T13:36:23.111Z,305
2018-05-02T13:37:24.928Z,340
2018-05-02T13:38:26.831Z,385
2018-05-02T13:39:28.724Z,405
2018-05-02T13:40:30.587Z,420
2018-05-02T13:41:44.762Z,450
2018-05-02T13:42:46.642Z,480
2018-05-02T13:43:48.648Z,495
2018-05-02T13:44:50.452Z,495
2018-05-02T13:45:52.291Z,480
2018-05-02T13:46:54.112Z,475
2018-05-02T13:47:55.976Z,470
2018-05-02T13:48:57.808Z,465
2018-05-02T13:49:59.641Z,460
2018-05-02T13:51:13.859Z,470
2018-05-02T13:52:15.696Z,475
2018-05-02T13:53:17.583Z,475
2018-05-02T13:54:19.487Z,485
2018-05-02T13:55:21.326Z,490
2018-05-02T13:56:23.184Z,490
2018-05-02T13:57:25.499Z,485
2018-05-02T13:58:27.333Z,495
2018-05-02T13:59:29.233Z,510
2018-05-02T14:00:43.387Z,520
2018-05-02T14:01:45.263Z,520
2018-05-02T14:02:47.144Z,520
2018-05-02T14:03:49.043Z,520
2018-05-02T14:04:50.865Z,515
2018-05-02T14:05:52.680Z,505
2018-05-02T14:06:54.576Z,495
2018-05-02T14:07:56.460Z,470
2018-05-02T14:08:58.340Z,470
2018-05-02T14:10:12.523Z,470
2018-05-02T14:11:14.425Z,460
2018-05-02T14:12:16.323Z,435
2018-05-02T14:13:18.238Z,425
2018-05-02T14:14:20.080Z,415
2018-05-02T14:15:21.909Z,415
2018-05-02T14:16:23.785Z,420
2018-05-02T14:17:25.717Z,425
2018-05-02T14:18:27.610Z,450
2018-05-02T14:19:41.773Z,470
2018-05-02T14:20:43.676Z,460
2018-05-02T14:21:45.574Z,430
2018-05-02T14:22:47.453Z,420
2018-05-02T14:23:49.273Z,415
2018-05-02T14:24:51.200Z,420
2018-05-02T14:25:52.989Z,420
2018-05-02T14:26:54.868Z,395
2018-05-02T14:27:56.766Z,400
2018-05-02T14:29:10.921Z,405
2018-05-02T14:30:12.815Z,400
2018-05-02T14:31:14.697Z,395
2018-05-02T14:32:16.577Z,390
2018-05-02T14:33:18.410Z,415
2018-05-02T14:34:20.229Z,430
2018-05-02T14:35:22.136Z,455
2018-05-02T14:36:24.009Z,455
2018-05-02T14:37:25.896Z,420
2018-05-02T14:38:40.053Z,375
2018-05-02T14:39:41.912Z,355
2018-05-02T14:40:43.788Z,320
2018-05-02T14:41:45.672Z,305
2018-05-02T14:42:47.484Z,295
2018-05-02T14:43:49.398Z,290
2018-05-02T14:44:51.277Z,290
2018-05-02T14:45:53.153Z,305
2018-05-02T14:46:55.068Z,335
2018-05-02T14:48:09.229Z,380
2018-05-02T14:49:11.228Z,400
2018-05-02T14:50:13.168Z,415
2018-05-02T14:51:15.153Z,430
2018-05-02T14:52:17.074Z,445
2018-05-02T14:53:18.940Z,455
2018-05-02T14:54:20.827Z,460
2018-05-02T14:55:22.720Z,455
2018-05-02T14:56:24.601Z,465
2018-05-02T14:57:38.757Z,470
2018-05-02T14:58:40.642Z,470
2018-05-02T14:59:42.528Z,500
2018-05-02T15:00:44.420Z,510
2018-05-02T15:01:46.244Z,520
2018-05-02T15:02:48.089Z,535
2018-05-02T15:03:49.993Z,535
2018-05-02T15:04:51.891Z,535
2018-05-02T15:05:53.764Z,535
2018-05-02T15:07:07.939Z,535
